Map

Track Data

SID SEASON NUMBER BASIN SUBBASIN NAME ISO_TIME NATURE LAT LON WMO_WIND WMO_PRES WMO_AGENCY TRACK_TYPE DIST2LAND LANDFALL IFLAG USA_AGENCY USA_ATCF_ID USA_LAT USA_LON USA_RECORD USA_STATUS USA_WIND USA_PRES USA_SSHS USA_R34_NE USA_R34_SE USA_R34_SW USA_R34_NW USA_R50_NE USA_R50_SE USA_R50_SW USA_R50_NW USA_R64_NE USA_R64_SE USA_R64_SW USA_R64_NW USA_POCI USA_ROCI USA_RMW USA_EYE TOKYO_LAT TOKYO_LON TOKYO_GRADE TOKYO_WIND TOKYO_PRES TOKYO_R50_DIR TOKYO_R50_LONG TOKYO_R50_SHORT TOKYO_R30_DIR TOKYO_R30_LONG TOKYO_R30_SHORT TOKYO_LAND CMA_LAT CMA_LON CMA_CAT CMA_WIND CMA_PRES HKO_LAT HKO_LON HKO_CAT HKO_WIND HKO_PRES NEWDELHI_LAT NEWDELHI_LON NEWDELHI_GRADE NEWDELHI_WIND NEWDELHI_PRES NEWDELHI_CI NEWDELHI_DP NEWDELHI_POCI REUNION_LAT REUNION_LON REUNION_TYPE REUNION_WIND REUNION_PRES REUNION_TNUM REUNION_CI REUNION_RMW REUNION_R34_NE REUNION_R34_SE REUNION_R34_SW REUNION_R34_NW REUNION_R50_NE REUNION_R50_SE REUNION_R50_SW REUNION_R50_NW REUNION_R64_NE REUNION_R64_SE REUNION_R64_SW REUNION_R64_NW BOM_LAT BOM_LON BOM_TYPE BOM_WIND BOM_PRES BOM_TNUM BOM_CI BOM_RMW BOM_R34_NE BOM_R34_SE BOM_R34_SW BOM_R34_NW BOM_R50_NE BOM_R50_SE BOM_R50_SW BOM_R50_NW BOM_R64_NE BOM_R64_SE BOM_R64_SW BOM_R64_NW BOM_ROCI BOM_POCI BOM_EYE BOM_POS_METHOD BOM_PRES_METHOD NADI_LAT NADI_LON NADI_CAT NADI_WIND NADI_PRES WELLINGTON_LAT WELLINGTON_LON WELLINGTON_WIND WELLINGTON_PRES DS824_LAT DS824_LON DS824_STAGE DS824_WIND DS824_PRES TD9636_LAT TD9636_LON TD9636_STAGE TD9636_WIND TD9636_PRES TD9635_LAT TD9635_LON TD9635_WIND TD9635_PRES TD9635_ROCI NEUMANN_LAT NEUMANN_LON NEUMANN_CLASS NEUMANN_WIND NEUMANN_PRES MLC_LAT MLC_LON MLC_CLASS MLC_WIND MLC_PRES USA_GUST BOM_GUST BOM_GUST_PER REUNION_GUST REUNION_GUST_PER USA_SEAHGT USA_SEARAD_NE USA_SEARAD_SE USA_SEARAD_SW USA_SEARAD_NW STORM_SPEED STORM_DIR
1860081S14069 1860 13 SI MM NOT_NAMED 1860-03-21 06:00:00 NR -13.6000 69.0000 reunion spur-split 1404 1389 _____O________ -1 -13.6000 69.0000 99 9.90000 4 236
1860081S14069 1860 13 SI MM NOT_NAMED 1860-03-21 09:00:00 NR -13.7019 68.8487 spur-split 1380 1365 _____P________ -1 -13.7019 68.8487 99 4 235
1860081S14069 1860 13 SI MM NOT_NAMED 1860-03-21 12:00:00 NR -13.8035 68.6975 spur-split 1365 1350 _____P________ -1 -13.8035 68.6975 99 4 235
1860081S14069 1860 13 SI MM NOT_NAMED 1860-03-21 15:00:00 NR -13.9047 68.5465 spur-split 1341 1326 _____P________ -1 -13.9047 68.5465 99 4 235
1860081S14069 1860 13 SI MM NOT_NAMED 1860-03-21 18:00:00 NR -14.0054 68.3958 spur-split 1326 1311 _____P________ -1 -14.0054 68.3958 99 4 235
1860081S14069 1860 13 SI MM NOT_NAMED 1860-03-21 21:00:00 NR -14.1055 68.2456 spur-split 1301 1286 _____P________ -1 -14.1055 68.2456 99 4 235
1860081S14069 1860 13 SI MM NOT_NAMED 1860-03-22 00:00:00 NR -14.2047 68.0962 spur-split 1286 1271 _____P________ -1 -14.2047 68.0962 99 4 236
1860081S14069 1860 13 SI MM NOT_NAMED 1860-03-22 03:00:00 NR -14.3029 67.9476 spur-split 1262 1247 _____P________ -1 -14.3029 67.9476 99 3 236
1860081S14069 1860 13 SI MM NOT_NAMED 1860-03-22 06:00:00 NR -14.4000 67.8000 reunion spur-split 1247 1232 _____O________ -1 -14.4000 67.8000 99 9.90000 3 236
1860081S14069 1860 13 SI MM NOT_NAMED 1860-03-22 09:00:00 NR -14.4962 67.6533 spur-split 1232 1208 _____P________ -1 -14.4962 67.6533 99 3 236
1860081S14069 1860 13 SI MM NOT_NAMED 1860-03-22 12:00:00 NR -14.5931 67.5059 spur-split 1208 1193 _____P________ -1 -14.5931 67.5059 99 3 236
1860081S14069 1860 13 SI MM NOT_NAMED 1860-03-22 15:00:00 NR -14.6927 67.3559 spur-split 1193 1168 _____P________ -1 -14.6927 67.3559 99 4 235
1860081S14069 1860 13 SI MM NOT_NAMED 1860-03-22 18:00:00 NR -14.7970 67.2014 spur-split 1168 1144 _____P________ -1 -14.7970 67.2014 99 4 235
1860081S14069 1860 13 SI MM NOT_NAMED 1860-03-22 21:00:00 NR -14.9079 67.0405 spur-split 1144 1129 _____P________ -1 -14.9079 67.0405 99 4 234
1860081S14069 1860 13 SI MM NOT_NAMED 1860-03-23 00:00:00 NR -15.0274 66.8713 spur-split 1129 1105 _____P________ -1 -15.0274 66.8713 99 4 233
1860081S14069 1860 13 SI MM NOT_NAMED 1860-03-23 03:00:00 NR -15.1574 66.6918 spur-split 1099 1075 _____P________ -1 -15.1574 66.6918 99 5 233
1860081S14069 1860 13 SI MM NOT_NAMED 1860-03-23 06:00:00 NR -15.3000 66.5000 reunion spur-split 1075 1045 _____O________ -1 -15.3000 66.5000 99 9.90000 5 232
1860081S14069 1860 13 SI MM NOT_NAMED 1860-03-23 09:00:00 NR -15.4732 66.2775 spur-split 1045 1015 _____P________ -1 -15.4732 66.2775 99 6 231
1860081S14069 1860 13 SI MM NOT_NAMED 1860-03-23 12:00:00 NR -15.6608 66.0407 spur-split 1006 982 _____P________ -1 -15.6608 66.0407 99 6 230
1860081S14069 1860 13 SI MM NOT_NAMED 1860-03-23 15:00:00 NR -15.8575 65.7945 spur-split 976 952 _____P________ -1 -15.8575 65.7945 99 6 230
1860081S14069 1860 13 SI MM NOT_NAMED 1860-03-23 18:00:00 NR -16.0582 65.5440 spur-split 937 913 _____P________ -1 -16.0582 65.5440 99 6 230
1860081S14069 1860 13 SI MM NOT_NAMED 1860-03-23 21:00:00 NR -16.2579 65.2941 spur-split 908 884 _____P________ -1 -16.2579 65.2941 99 6 230
1860081S14069 1860 13 SI MM NOT_NAMED 1860-03-24 00:00:00 NR -16.4515 65.0501 spur-split 878 845 _____P________ -1 -16.4515 65.0501 99 6 231
1860081S14069 1860 13 SI MM NOT_NAMED 1860-03-24 03:00:00 NR -16.6338 64.8170 spur-split 845 816 _____P________ -1 -16.6338 64.8170 99 6 231
1860081S14069 1860 13 SI MM NOT_NAMED 1860-03-24 06:00:00 NR -16.8000 64.6000 reunion spur-split 816 791 _____O________ -1 -16.8000 64.6000 99 9.90000 5 232
1860081S14069 1860 13 SI MM NOT_NAMED 1860-03-24 09:00:00 NR -16.9205 64.4300 spur-split 791 777 _____P________ -1 -16.9205 64.4300 99 4 234
1860081S14069 1860 13 SI MM NOT_NAMED 1860-03-24 12:00:00 NR -17.0250 64.2765 spur-split 777 753 _____P________ -1 -17.0250 64.2765 99 3 235
1860081S14069 1860 13 SI MM NOT_NAMED 1860-03-24 15:00:00 NR -17.1185 64.1343 spur-split 753 738 _____P________ -1 -17.1185 64.1343 99 3 236
1860081S14069 1860 13 SI MM NOT_NAMED 1860-03-24 18:00:00 NR -17.2062 63.9978 spur-split 738 724 _____P________ -1 -17.2062 63.9978 99 3 236
1860081S14069 1860 13 SI MM NOT_NAMED 1860-03-24 21:00:00 NR -17.2931 63.8616 spur-split 724 700 _____P________ -1 -17.2931 63.8616 99 3 236
1860081S14069 1860 13 SI MM NOT_NAMED 1860-03-25 00:00:00 NR -17.3844 63.7202 spur-split 700 685 _____P________ -1 -17.3844 63.7202 99 3 236
1860081S14069 1860 13 SI MM NOT_NAMED 1860-03-25 03:00:00 NR -17.4850 63.5682 spur-split 685 661 _____P________ -1 -17.4850 63.5682 99 4 235
1860081S14069 1860 13 SI MM NOT_NAMED 1860-03-25 06:00:00 NR -17.6000 63.4000 reunion spur-split 661 637 _____O________ -1 -17.6000 63.4000 99 9.90000 5 234
1860081S14069 1860 13 SI MM NOT_NAMED 1860-03-25 09:00:00 NR -17.7512 63.1840 spur-split 632 608 _____P________ -1 -17.7512 63.1840 99 5 234
1860081S14069 1860 13 SI MM NOT_NAMED 1860-03-25 12:00:00 NR -17.9156 62.9517 spur-split 608 570 _____P________ -1 -17.9156 62.9517 99 6 233
1860081S14069 1860 13 SI MM NOT_NAMED 1860-03-25 15:00:00 NR -18.0898 62.7083 spur-split 570 541 _____P________ -1 -18.0898 62.7083 99 6 233
1860081S14069 1860 13 SI MM NOT_NAMED 1860-03-25 18:00:00 NR -18.2708 62.4586 spur-split 541 508 _____P________ -1 -18.2708 62.4586 99 6 232
1860081S14069 1860 13 SI MM NOT_NAMED 1860-03-25 21:00:00 NR -18.4555 62.2078 spur-split 503 479 _____P________ -1 -18.4555 62.2078 99 6 232
1860081S14069 1860 13 SI MM NOT_NAMED 1860-03-26 00:00:00 NR -18.6406 61.9610 spur-split 479 441 _____P________ -1 -18.6406 61.9610 99 6 231
1860081S14069 1860 13 SI MM NOT_NAMED 1860-03-26 03:00:00 NR -18.8231 61.7234 spur-split 441 413 _____P________ -1 -18.8231 61.7234 99 6 231
1860081S14069 1860 13 SI MM NOT_NAMED 1860-03-26 06:00:00 NR -19.0000 61.5000 reunion spur-split 413 390 _____O________ -1 -19.0000 61.5000 99 9.90000 5 230
1860081S14069 1860 13 SI MM NOT_NAMED 1860-03-26 09:00:00 NR -19.1532 61.3071 spur-split 386 362 _____P________ -1 -19.1532 61.3071 99 5 229
1860081S14069 1860 13 SI MM NOT_NAMED 1860-03-26 12:00:00 NR -19.3016 61.1268 spur-split 362 349 _____P________ -1 -19.3016 61.1268 99 4 228
1860081S14069 1860 13 SI MM NOT_NAMED 1860-03-26 15:00:00 NR -19.4471 60.9571 spur-split 349 323 _____P________ -1 -19.4471 60.9571 99 4 227
1860081S14069 1860 13 SI MM NOT_NAMED 1860-03-26 18:00:00 NR -19.5918 60.7962 spur-split 323 310 _____P________ -1 -19.5918 60.7962 99 4 226
1860081S14069 1860 13 SI MM NOT_NAMED 1860-03-26 21:00:00 NR -19.7374 60.6420 spur-split 300 285 _____P________ -1 -19.7374 60.6420 99 4 224
1860081S14069 1860 13 SI MM NOT_NAMED 1860-03-27 00:00:00 NR -19.8861 60.4925 spur-split 285 273 _____P________ -1 -19.8861 60.4925 99 4 223
1860081S14069 1860 13 SI MM NOT_NAMED 1860-03-27 03:00:00 NR -20.0396 60.3459 spur-split 263 250 _____P________ -1 -20.0396 60.3459 99 4 221
1860081S14069 1860 13 SI MM NOT_NAMED 1860-03-27 06:00:00 NR -20.2000 60.2000 reunion spur-split 250 239 _____O________ -1 -20.2000 60.2000 99 9.90000 4 224
1860081S14069 1860 13 SI MM NOT_NAMED 1860-03-27 09:00:00 NR -20.3371 60.0446 spur-split 229 219 _____P________ -1 -20.3371 60.0446 99 4 227
1860081S14069 1860 13 SI MM NOT_NAMED 1860-03-27 12:00:00 NR -20.4762 59.8913 spur-split 219 200 _____P________ -1 -20.4762 59.8913 99 4 225
1860081S14069 1860 13 SI MM NOT_NAMED 1860-03-27 15:00:00 NR -20.6234 59.7399 spur-split 200 192 _____P________ -1 -20.6234 59.7399 99 4 222
1860081S14069 1860 13 SI MM NOT_NAMED 1860-03-27 18:00:00 NR -20.7849 59.5901 spur-split 195 183 _____P________ -1 -20.7849 59.5901 99 4 219
1860081S14069 1860 13 SI MM NOT_NAMED 1860-03-27 21:00:00 NR -20.9671 59.4416 spur-split 183 179 _____P________ -1 -20.9671 59.4416 99 5 215
1860081S14069 1860 13 SI MM NOT_NAMED 1860-03-28 00:00:00 NR -21.1762 59.2940 spur-split 183 179 _____P________ -1 -21.1762 59.2940 99 5 211
1860081S14069 1860 13 SI MM NOT_NAMED 1860-03-28 03:00:00 NR -21.4184 59.1469 spur-split 176 176 _____P________ -1 -21.4184 59.1469 99 6 208
1860081S14069 1860 13 SI MM NOT_NAMED 1860-03-28 06:00:00 NR -21.7000 59.0000 reunion spur-split 190 190 _____O________ -1 -21.7000 59.0000 99 9.90000 7 205
1860081S14069 1860 13 SI MM NOT_NAMED 1860-03-28 09:00:00 NR -22.0368 58.8411 spur-split 202 202 _____P________ -1 -22.0368 58.8411 99 8 202
1860081S14069 1860 13 SI MM NOT_NAMED 1860-03-28 12:00:00 NR -22.4137 58.6809 spur-split 236 236 _____P________ -1 -22.4137 58.6809 99 8 201
1860081S14069 1860 13 SI MM NOT_NAMED 1860-03-28 15:00:00 NR -22.8233 58.5213 spur-split 270 270 _____P________ -1 -22.8233 58.5213 99 9 199
1860081S14069 1860 13 SI MM NOT_NAMED 1860-03-28 18:00:00 NR -23.2580 58.3642 spur-split 321 319 _____P________ -1 -23.2580 58.3642 99 9 198
1860081S14069 1860 13 SI MM NOT_NAMED 1860-03-28 21:00:00 NR -23.7105 58.2115 spur-split 361 361 _____P________ -1 -23.7105 58.2115 99 10 197
1860081S14069 1860 13 SI MM NOT_NAMED 1860-03-29 00:00:00 NR -24.1733 58.0652 spur-split 400 394 _____P________ -1 -24.1733 58.0652 99 10 196
1860081S14069 1860 13 SI MM NOT_NAMED 1860-03-29 03:00:00 NR -24.6389 57.9273 spur-split 426 426 _____P________ -1 -24.6389 57.9273 99 10 195
1860081S14069 1860 13 SI MM NOT_NAMED 1860-03-29 06:00:00 NR -25.1000 57.8000 reunion spur-split 470 470 _____O________ -1 -25.1000 57.8000 99 9.90000 9 194
1860081S14069 1860 13 SI MM NOT_NAMED 1860-03-29 09:00:00 NR -25.5515 57.6812 spur-split 515 515 _____P________ -1 -25.5515 57.6812 99 9 193
1860081S14069 1860 13 SI MM NOT_NAMED 1860-03-29 12:00:00 NR -26.0064 57.5723 spur-split 552 552 _____P________ -1 -26.0064 57.5723 99 9 191
1860081S14069 1860 13 SI MM NOT_NAMED 1860-03-29 15:00:00 NR -26.4592 57.4727 spur-split 601 601 _____P________ -1 -26.4592 57.4727 99 9 191
1860081S14069 1860 13 SI MM NOT_NAMED 1860-03-29 18:00:00 NR -26.9044 57.3820 spur-split 641 641 _____P________ -1 -26.9044 57.3820 99 9 190
1860081S14069 1860 13 SI MM NOT_NAMED 1860-03-29 21:00:00 NR -27.3366 57.2999 spur-split 681 681 _____P________ -1 -27.3366 57.2999 99 9 189
1860081S14069 1860 13 SI MM NOT_NAMED 1860-03-30 00:00:00 NR -27.7503 57.2258 spur-split 733 733 _____P________ -1 -27.7503 57.2258 99 8 189
1860081S14069 1860 13 SI MM NOT_NAMED 1860-03-30 03:00:00 NR -28.1399 57.1593 spur-split 765 765 _____P________ -1 -28.1399 57.1593 99 8 188
1860081S14069 1860 13 SI MM NOT_NAMED 1860-03-30 06:00:00 NR -28.5000 57.1000 reunion spur-split 807 807 _____O________ -1 -28.5000 57.1000 99 9.90000 7 188
1860081S14069 1860 13 SI MM NOT_NAMED 1860-03-30 09:00:00 NR -28.8266 57.0474 spur-split 838 838 _____P________ -1 -28.8266 57.0474 99 6 188
1860081S14069 1860 13 SI MM NOT_NAMED 1860-03-30 12:00:00 NR -29.1226 57.0009 spur-split 871 871 _____P________ -1 -29.1226 57.0009 99 6 188
1860081S14069 1860 13 SI MM NOT_NAMED 1860-03-30 15:00:00 NR -29.3923 56.9595 spur-split 904 904 _____P________ -1 -29.3923 56.9595 99 5 187
1860081S14069 1860 13 SI MM NOT_NAMED 1860-03-30 18:00:00 NR -29.6400 56.9224 spur-split 925 925 _____P________ -1 -29.6400 56.9224 99 5 187
1860081S14069 1860 13 SI MM NOT_NAMED 1860-03-30 21:00:00 NR -29.8703 56.8888 spur-split 958 958 _____P________ -1 -29.8703 56.8888 99 5 187
1860081S14069 1860 13 SI MM NOT_NAMED 1860-03-31 00:00:00 NR -30.0875 56.8578 spur-split 980 979 _____P________ -1 -30.0875 56.8578 99 4 188
1860081S14069 1860 13 SI MM NOT_NAMED 1860-03-31 03:00:00 NR -30.2959 56.8285 spur-split 1001 1001 _____P________ -1 -30.2959 56.8285 99 4 188
1860081S14069 1860 13 SI MM NOT_NAMED 1860-03-31 06:00:00 NR -30.5000 56.8000 reunion spur-split 1023 _____O________ -1 -30.5000 56.8000 99 9.90000 4 187

About IBTrACS Database

This database is a web-friendly format of International Best Track Archive for Climate Stewardship (IBTrACS), a global best track data archive curated by NOAA dating back to 1842.

Updated: 2021-12-03